createdAt,value
2018-07-28T00:00:26.818Z,8.10
2018-07-28T00:02:56.505Z,7.37
2018-07-28T00:05:26.113Z,7.67
2018-07-28T00:07:55.839Z,7.23
2018-07-28T00:10:25.667Z,7.70
2018-07-28T00:12:55.399Z,7.13
2018-07-28T00:15:25.105Z,8.00
2018-07-28T00:17:54.818Z,7.67
2018-07-28T00:20:24.601Z,7.40
2018-07-28T00:22:54.213Z,7.60
2018-07-28T00:25:24.033Z,8.33
2018-07-28T00:27:53.646Z,7.93
2018-07-28T00:30:23.410Z,7.27
2018-07-28T00:32:53.112Z,7.47
2018-07-28T00:35:22.883Z,7.43
2018-07-28T00:37:52.638Z,7.83
2018-07-28T00:40:22.338Z,7.13
2018-07-28T00:42:52.110Z,7.13
2018-07-28T00:45:21.766Z,7.27
2018-07-28T00:47:51.544Z,7.00
2018-07-28T00:50:21.298Z,7.50
2018-07-28T00:52:50.935Z,7.87
2018-07-28T00:55:20.714Z,7.30
2018-07-28T00:57:50.415Z,7.40
2018-07-28T01:00:20.172Z,7.30
2018-07-28T01:02:49.853Z,7.03
2018-07-28T01:05:19.620Z,6.43
2018-07-28T01:07:49.282Z,7.40
2018-07-28T01:10:19.088Z,6.43
2018-07-28T01:12:48.812Z,6.97
2018-07-28T01:15:18.567Z,7.13
2018-07-28T01:17:48.193Z,7.00
2018-07-28T01:20:17.983Z,6.50
2018-07-28T01:22:47.615Z,6.63
2018-07-28T01:25:17.333Z,6.60
2018-07-28T01:27:47.009Z,5.57
2018-07-28T01:30:21.931Z,5.77
2018-07-28T01:32:51.581Z,6.57
2018-07-28T01:35:21.282Z,6.63
2018-07-28T01:37:50.959Z,6.57
2018-07-28T01:40:20.646Z,6.80
2018-07-28T01:42:50.355Z,6.73
2018-07-28T01:45:20.064Z,6.53
2018-07-28T01:47:49.676Z,7.57
2018-07-28T01:50:19.406Z,7.20
2018-07-28T01:52:48.977Z,7.53
2018-07-28T01:55:18.691Z,7.10
2018-07-28T01:57:48.303Z,7.20
2018-07-28T02:00:17.921Z,6.73
2018-07-28T02:02:47.585Z,6.67
2018-07-28T02:05:17.309Z,6.03
2018-07-28T02:07:46.986Z,6.83
2018-07-28T02:10:16.617Z,7.47
2018-07-28T02:12:46.359Z,8.73
2018-07-28T02:15:15.997Z,8.60
2018-07-28T02:17:45.562Z,7.97
2018-07-28T02:20:15.368Z,9.07
2018-07-28T02:22:45.047Z,8.37
2018-07-28T02:25:14.731Z,9.30
2018-07-28T02:27:44.378Z,8.40
2018-07-28T02:30:14.055Z,7.80
2018-07-28T02:32:43.803Z,8.03
2018-07-28T02:35:13.522Z,8.17
2018-07-28T02:37:43.153Z,8.10
2018-07-28T02:40:12.880Z,8.13
2018-07-28T02:42:42.531Z,8.27
2018-07-28T02:45:12.243Z,7.13
2018-07-28T02:47:41.930Z,7.60
2018-07-28T02:50:11.530Z,7.27
2018-07-28T02:52:41.185Z,7.57
2018-07-28T02:55:11.178Z,7.13
2018-07-28T02:57:40.978Z,7.97
2018-07-28T03:00:10.836Z,7.50
2018-07-28T03:02:40.440Z,7.17
2018-07-28T03:05:10.106Z,6.93
2018-07-28T03:07:39.743Z,6.40
2018-07-28T03:10:09.855Z,6.90
2018-07-28T03:12:39.569Z,7.17
2018-07-28T03:15:32.265Z,6.93
2018-07-28T03:18:03.178Z,7.07
2018-07-28T03:20:32.965Z,7.10
2018-07-28T03:23:03.436Z,7.50
2018-07-28T03:25:33.024Z,7.17
2018-07-28T03:28:02.781Z,7.07
2018-07-28T03:30:32.487Z,7.00
2018-07-28T03:33:02.361Z,7.30
2018-07-28T03:35:31.954Z,6.87
2018-07-28T03:38:01.483Z,7.33
2018-07-28T03:40:31.103Z,7.00
2018-07-28T03:43:00.714Z,6.40
2018-07-28T03:45:30.382Z,6.77
2018-07-28T03:48:00.035Z,6.20
2018-07-28T03:50:29.724Z,6.07
2018-07-28T03:52:59.448Z,6.73
2018-07-28T03:55:29.048Z,5.87
2018-07-28T03:57:58.768Z,6.70
2018-07-28T04:00:28.496Z,5.90
2018-07-28T04:02:58.133Z,6.33
2018-07-28T04:05:27.845Z,4.87
2018-07-28T04:07:57.540Z,5.87
2018-07-28T04:10:27.215Z,6.00
2018-07-28T04:12:56.951Z,5.70
2018-07-28T04:15:26.703Z,5.67
2018-07-28T04:17:56.855Z,5.60
2018-07-28T04:20:27.507Z,6.50
2018-07-28T04:22:57.054Z,6.20
2018-07-28T04:25:26.681Z,6.30
2018-07-28T04:27:56.357Z,5.83
2018-07-28T04:30:26.087Z,6.53
2018-07-28T04:32:55.805Z,6.20
2018-07-28T04:35:25.415Z,6.13
2018-07-28T04:37:54.975Z,6.87
2018-07-28T04:40:24.676Z,5.73
2018-07-28T04:42:54.340Z,7.63
2018-07-28T04:45:23.934Z,7.00
2018-07-28T04:47:53.524Z,6.90
2018-07-28T04:50:23.182Z,6.57
2018-07-28T04:52:53.177Z,6.80
2018-07-28T04:55:22.809Z,6.57
2018-07-28T04:57:52.476Z,6.37
2018-07-28T05:00:22.111Z,5.77
2018-07-28T05:02:51.732Z,6.10
2018-07-28T05:05:21.335Z,6.23
2018-07-28T05:07:51.026Z,6.30
2018-07-28T05:10:20.693Z,5.97
2018-07-28T05:12:50.425Z,5.67
2018-07-28T05:15:20.245Z,6.80
2018-07-28T05:17:50.001Z,6.13
2018-07-28T05:20:19.713Z,6.10
2018-07-28T05:22:49.383Z,6.87
2018-07-28T05:25:19.217Z,7.30
2018-07-28T05:27:48.990Z,6.93
2018-07-28T05:30:18.615Z,7.10
2018-07-28T05:32:48.287Z,7.53
2018-07-28T05:35:17.982Z,7.00
2018-07-28T05:37:47.683Z,6.97
2018-07-28T05:40:17.288Z,6.50
2018-07-28T05:42:46.939Z,7.77
2018-07-28T05:45:16.651Z,6.80
2018-07-28T05:47:46.391Z,7.97
2018-07-28T05:50:16.283Z,6.97
2018-07-28T05:52:45.783Z,6.97
2018-07-28T05:55:15.530Z,6.43
2018-07-28T05:57:45.209Z,5.97
2018-07-28T06:00:14.894Z,6.47
2018-07-28T06:02:44.550Z,7.57
2018-07-28T06:05:14.342Z,8.37
2018-07-28T06:07:44.039Z,8.07
2018-07-28T06:10:13.755Z,8.27
2018-07-28T06:12:43.354Z,7.67
2018-07-28T06:15:13.002Z,8.13
2018-07-28T06:17:42.653Z,8.43
2018-07-28T06:20:12.440Z,8.27
2018-07-28T06:22:42.106Z,7.70
2018-07-28T06:25:11.735Z,7.97
2018-07-28T06:27:41.341Z,8.13
2018-07-28T06:30:11.629Z,9.10
2018-07-28T06:32:41.467Z,10.33
2018-07-28T06:35:11.126Z,10.63
2018-07-28T06:37:40.849Z,10.97
2018-07-28T06:40:10.937Z,11.30
2018-07-28T06:42:40.620Z,11.97
2018-07-28T06:45:10.461Z,10.47
2018-07-28T06:47:40.073Z,10.97
2018-07-28T06:50:09.869Z,11.57
2018-07-28T06:52:39.492Z,11.33
2018-07-28T06:55:09.221Z,13.20
2018-07-28T06:57:38.921Z,12.37
2018-07-28T07:00:10.249Z,13.20
2018-07-28T07:02:39.903Z,13.17
2018-07-28T07:05:09.926Z,13.70
2018-07-28T07:07:39.600Z,13.27
2018-07-28T07:10:09.191Z,14.53
2018-07-28T07:12:38.886Z,13.37
2018-07-28T07:15:08.628Z,14.03
2018-07-28T07:17:38.210Z,14.37
2018-07-28T07:20:08.409Z,14.27
2018-07-28T07:22:38.106Z,14.70
2018-07-28T07:25:08.107Z,13.87
2018-07-28T07:27:37.974Z,14.13
2018-07-28T07:30:07.909Z,12.90
2018-07-28T07:32:37.725Z,13.50
2018-07-28T07:35:07.360Z,13.90
2018-07-28T07:37:37.050Z,12.20
2018-07-28T07:40:07.273Z,13.63
2018-07-28T07:42:36.920Z,13.70
2018-07-28T07:45:07.034Z,14.90
2018-07-28T07:47:36.796Z,14.13
2018-07-28T07:50:06.644Z,14.87
2018-07-28T07:52:36.225Z,15.03
2018-07-28T07:55:05.960Z,15.20
2018-07-28T07:57:35.669Z,14.00
2018-07-28T08:00:05.288Z,14.60
2018-07-28T08:02:34.922Z,15.20
2018-07-28T08:05:05.023Z,14.83
2018-07-28T08:07:34.651Z,13.77
2018-07-28T08:10:05.101Z,15.23
2018-07-28T08:12:34.903Z,15.47
2018-07-28T08:15:05.006Z,14.70
2018-07-28T08:17:34.755Z,14.67
2018-07-28T08:20:04.965Z,13.20
2018-07-28T08:22:34.757Z,14.60
2018-07-28T08:25:04.950Z,15.10
2018-07-28T08:27:34.797Z,13.57
2018-07-28T08:30:05.422Z,14.43
2018-07-28T08:32:35.139Z,15.00
2018-07-28T08:35:05.974Z,14.73
2018-07-28T08:37:35.668Z,16.67
2018-07-28T08:40:06.100Z,15.40
2018-07-28T08:42:35.651Z,15.30
2018-07-28T08:45:06.423Z,15.63
2018-07-28T08:47:36.309Z,15.80
2018-07-28T08:50:06.175Z,15.07
2018-07-28T08:52:35.797Z,15.10
2018-07-28T08:55:05.755Z,17.60
2018-07-28T08:57:35.461Z,17.37
2018-07-28T09:00:05.376Z,17.37
2018-07-28T09:02:35.275Z,16.63
2018-07-28T09:05:05.418Z,17.23
2018-07-28T09:07:35.089Z,16.87
2018-07-28T09:10:04.924Z,17.80
2018-07-28T09:12:34.951Z,18.80
2018-07-28T09:15:05.679Z,19.17
2018-07-28T09:17:35.457Z,18.30
2018-07-28T09:20:05.225Z,17.30
2018-07-28T09:22:34.950Z,17.63
2018-07-28T09:25:04.699Z,16.60
2018-07-28T09:27:34.381Z,16.53
2018-07-28T09:30:04.087Z,14.90
2018-07-28T09:32:34.123Z,14.27
2018-07-28T09:35:03.729Z,14.63
2018-07-28T09:37:33.390Z,11.30
2018-07-28T09:40:03.037Z,12.30
2018-07-28T09:42:32.712Z,13.97
2018-07-28T09:45:02.347Z,15.30
2018-07-28T09:47:31.947Z,14.87
2018-07-28T09:50:01.593Z,15.03
2018-07-28T09:52:31.262Z,17.53
2018-07-28T09:55:00.924Z,15.50
2018-07-28T09:57:30.690Z,15.93
2018-07-28T10:00:00.408Z,16.70
2018-07-28T10:02:30.010Z,17.97
2018-07-28T10:04:59.569Z,18.80
2018-07-28T10:07:29.252Z,18.47
2018-07-28T10:09:58.898Z,18.83
2018-07-28T10:12:28.662Z,17.67
2018-07-28T10:14:58.405Z,17.70
2018-07-28T10:17:28.016Z,16.70
2018-07-28T10:19:57.593Z,18.63
2018-07-28T10:22:27.207Z,18.70
2018-07-28T10:24:56.707Z,16.90
2018-07-28T10:27:26.301Z,18.10
2018-07-28T10:29:55.955Z,16.87
2018-07-28T10:32:25.630Z,17.67
2018-07-28T10:34:55.283Z,17.40
2018-07-28T10:37:25.061Z,17.57
2018-07-28T10:39:54.756Z,16.30
2018-07-28T10:42:24.407Z,16.67
2018-07-28T10:44:54.004Z,17.60
2018-07-28T10:47:24.242Z,17.60
2018-07-28T10:49:53.914Z,17.33
2018-07-28T10:52:23.574Z,17.13
2018-07-28T10:54:53.356Z,16.60
2018-07-28T10:57:24.473Z,17.13
2018-07-28T10:59:55.222Z,16.93
2018-07-28T11:02:25.466Z,16.77
2018-07-28T11:04:56.022Z,17.87
2018-07-28T11:07:25.600Z,15.83
2018-07-28T11:09:55.320Z,14.40
2018-07-28T11:12:24.892Z,15.00
2018-07-28T11:14:54.568Z,14.73
2018-07-28T11:17:24.696Z,15.00
2018-07-28T11:19:54.412Z,15.40
2018-07-28T11:22:24.154Z,14.10
2018-07-28T11:24:53.835Z,13.57
2018-07-28T11:27:23.394Z,12.70
2018-07-28T11:29:53.148Z,12.60
2018-07-28T11:32:39.530Z,11.77
2018-07-28T11:35:25.881Z,10.93
2018-07-28T11:38:36.128Z,9.73
2018-07-28T11:41:22.546Z,10.33
2018-07-28T11:45:10.166Z,9.80
2018-07-28T11:47:39.920Z,9.00
2018-07-28T11:50:09.577Z,8.20
2018-07-28T11:52:39.343Z,7.40
2018-07-28T11:55:08.998Z,8.07
2018-07-28T11:57:38.700Z,7.40
2018-07-28T12:00:10.367Z,7.33
2018-07-28T12:02:40.532Z,7.20
2018-07-28T12:05:10.908Z,7.50
2018-07-28T12:07:41.072Z,7.30
2018-07-28T12:10:11.218Z,6.90
2018-07-28T12:12:41.536Z,7.43
2018-07-28T12:15:11.844Z,7.10
2018-07-28T12:17:41.866Z,7.57
2018-07-28T12:20:12.320Z,8.37
2018-07-28T12:22:42.149Z,8.87
2018-07-28T12:25:11.959Z,8.53
2018-07-28T12:27:41.609Z,8.23
2018-07-28T12:30:12.161Z,8.80
2018-07-28T12:32:42.214Z,8.30
2018-07-28T12:35:11.889Z,8.10
2018-07-28T12:37:41.637Z,7.77
2018-07-28T12:40:11.349Z,7.80
2018-07-28T12:42:41.118Z,7.67
2018-07-28T12:45:10.924Z,7.73
2018-07-28T12:47:40.541Z,7.10
2018-07-28T12:50:10.350Z,7.97
2018-07-28T12:52:40.328Z,6.93
2018-07-28T12:55:09.705Z,6.60
2018-07-28T12:57:39.344Z,6.33
2018-07-28T13:00:08.981Z,6.53
2018-07-28T13:02:38.557Z,7.17
2018-07-28T13:05:09.177Z,5.97
2018-07-28T13:07:38.844Z,5.40
2018-07-28T13:10:09.283Z,4.90
2018-07-28T13:12:39.035Z,4.97
2018-07-28T13:15:08.811Z,4.97
2018-07-28T13:17:38.458Z,4.40
2018-07-28T13:20:08.353Z,4.77
2018-07-28T13:22:38.086Z,4.90
2018-07-28T13:25:07.846Z,4.60
2018-07-28T13:27:37.559Z,4.93
2018-07-28T13:30:07.759Z,5.33
2018-07-28T13:32:38.286Z,5.60
2018-07-28T13:35:08.034Z,5.30
2018-07-28T13:37:37.642Z,5.60
2018-07-28T13:40:07.353Z,5.73
2018-07-28T13:42:37.035Z,5.60
2018-07-28T13:45:07.170Z,5.87
2018-07-28T13:47:36.893Z,5.03
2018-07-28T13:50:06.783Z,5.40
2018-07-28T13:52:36.434Z,5.53
2018-07-28T13:55:06.250Z,4.73
2018-07-28T13:57:36.058Z,4.33
2018-07-28T14:00:07.178Z,4.70
2018-07-28T14:02:36.972Z,4.10
2018-07-28T14:05:06.658Z,4.43
2018-07-28T14:07:36.261Z,4.40
2018-07-28T14:10:06.874Z,3.90
2018-07-28T14:12:36.748Z,3.77
2018-07-28T14:15:07.644Z,4.07
2018-07-28T14:17:37.285Z,3.77
2018-07-28T14:20:07.254Z,3.70
2018-07-28T14:22:37.387Z,3.50
2018-07-28T14:25:07.798Z,3.80
2018-07-28T14:27:37.522Z,3.53
2018-07-28T14:30:07.350Z,3.30
2018-07-28T14:32:39.050Z,3.20
2018-07-28T14:35:08.405Z,3.40
2018-07-28T14:37:38.072Z,3.53
2018-07-28T14:40:07.728Z,3.30
2018-07-28T14:42:37.462Z,3.60
2018-07-28T14:45:09.309Z,3.60
2018-07-28T14:47:38.894Z,3.53
2018-07-28T14:50:08.905Z,3.50
2018-07-28T14:52:38.560Z,3.37
2018-07-28T14:55:08.437Z,2.83
2018-07-28T14:57:38.078Z,3.00
2018-07-28T15:00:08.454Z,3.00
2018-07-28T15:02:38.195Z,3.00
2018-07-28T15:05:08.211Z,3.20
2018-07-28T15:07:38.021Z,3.13
2018-07-28T15:10:07.658Z,2.80
2018-07-28T15:12:37.316Z,2.90
2018-07-28T15:15:07.265Z,2.80
2018-07-28T15:17:36.888Z,3.50
2018-07-28T15:20:06.577Z,2.97
2018-07-28T15:22:36.266Z,3.60
2018-07-28T15:25:05.937Z,3.57
2018-07-28T15:27:35.635Z,4.00
2018-07-28T15:30:05.749Z,3.67
2018-07-28T15:32:35.313Z,3.63
2018-07-28T15:35:04.657Z,3.57
2018-07-28T15:37:34.330Z,3.20
2018-07-28T15:40:04.103Z,3.40
2018-07-28T15:42:33.742Z,2.90
2018-07-28T15:45:03.426Z,3.57
2018-07-28T15:47:33.087Z,3.10
2018-07-28T15:50:02.798Z,3.67
2018-07-28T15:52:32.403Z,3.63
2018-07-28T15:55:02.144Z,3.00
2018-07-28T15:57:31.870Z,2.80
2018-07-28T16:00:01.583Z,3.00
2018-07-28T16:02:31.309Z,3.27
2018-07-28T16:05:00.961Z,2.67
2018-07-28T16:07:30.641Z,2.90
2018-07-28T16:10:00.380Z,3.00
2018-07-28T16:12:29.971Z,2.27
2018-07-28T16:14:59.733Z,3.13
2018-07-28T16:17:29.439Z,2.70
2018-07-28T16:19:59.157Z,2.80
2018-07-28T16:22:28.755Z,2.70
2018-07-28T16:24:58.651Z,2.90
2018-07-28T16:27:28.006Z,3.00
2018-07-28T16:29:57.684Z,3.07
2018-07-28T16:32:28.341Z,2.97
2018-07-28T16:34:57.970Z,3.03
2018-07-28T16:37:27.662Z,2.53
2018-07-28T16:39:57.615Z,2.83
2018-07-28T16:42:27.347Z,3.10
2018-07-28T16:44:57.239Z,3.03
2018-07-28T16:47:26.946Z,3.10
2018-07-28T16:49:56.663Z,3.00
2018-07-28T16:52:26.389Z,2.90
2018-07-28T16:54:56.056Z,3.13
2018-07-28T16:57:25.823Z,3.10
2018-07-28T16:59:55.593Z,2.80
2018-07-28T17:02:25.249Z,3.47
2018-07-28T17:04:55.050Z,3.00
2018-07-28T17:07:24.712Z,3.10
2018-07-28T17:09:54.930Z,3.23
2018-07-28T17:12:24.682Z,2.73
2018-07-28T17:14:54.324Z,3.17
2018-07-28T17:17:23.982Z,3.27
2018-07-28T17:19:53.732Z,3.73
2018-07-28T17:22:23.610Z,3.20
2018-07-28T17:24:53.316Z,2.87
2018-07-28T17:27:22.966Z,3.03
2018-07-28T17:29:52.633Z,2.90
2018-07-28T17:32:22.328Z,2.70
2018-07-28T17:34:52.038Z,3.37
2018-07-28T17:37:21.853Z,3.00
2018-07-28T17:39:51.495Z,2.97
2018-07-28T17:42:21.143Z,3.20
2018-07-28T17:44:50.799Z,3.10
2018-07-28T17:47:20.525Z,3.03
2018-07-28T17:49:50.297Z,2.90
2018-07-28T17:52:19.834Z,2.90
2018-07-28T17:54:49.676Z,3.17
2018-07-28T17:57:19.500Z,3.10
2018-07-28T17:59:49.213Z,3.43
2018-07-28T18:02:18.776Z,2.70
2018-07-28T18:04:48.528Z,3.07
2018-07-28T18:07:18.106Z,2.67
2018-07-28T18:09:47.834Z,2.83
2018-07-28T18:12:17.548Z,2.80
2018-07-28T18:14:47.144Z,2.70
2018-07-28T18:17:16.818Z,2.70
2018-07-28T18:19:46.546Z,2.57
2018-07-28T18:22:16.176Z,2.90
2018-07-28T18:24:45.819Z,2.93
2018-07-28T18:27:15.394Z,2.60
2018-07-28T18:29:44.996Z,2.23
2018-07-28T18:32:14.680Z,2.87
2018-07-28T18:34:44.430Z,2.80
2018-07-28T18:37:14.056Z,2.53
2018-07-28T18:39:43.707Z,2.57
2018-07-28T18:42:13.618Z,2.37
2018-07-28T18:44:43.322Z,3.03
2018-07-28T18:47:13.029Z,2.40
2018-07-28T18:49:42.745Z,2.73
2018-07-28T18:52:12.514Z,2.50
2018-07-28T18:54:42.125Z,2.53
2018-07-28T18:57:11.737Z,3.00
2018-07-28T18:59:41.330Z,3.33
2018-07-28T19:02:10.595Z,2.63
2018-07-28T19:04:40.320Z,2.77
2018-07-28T19:07:09.931Z,2.53
2018-07-28T19:09:44.859Z,2.83
2018-07-28T19:12:14.827Z,2.90
2018-07-28T19:14:44.900Z,2.70
2018-07-28T19:17:14.982Z,2.60
2018-07-28T19:19:45.094Z,2.50
2018-07-28T19:22:20.324Z,2.90
2018-07-28T19:24:50.515Z,2.73
2018-07-28T19:27:21.228Z,2.50
2018-07-28T19:29:51.494Z,3.30
2018-07-28T19:32:21.910Z,2.43
2018-07-28T19:34:52.336Z,2.47
2018-07-28T19:37:24.389Z,2.83
2018-07-28T19:39:54.754Z,2.40
2018-07-28T19:42:29.741Z,2.30
2018-07-28T19:45:00.007Z,2.40
2018-07-28T19:47:30.380Z,2.70
2018-07-28T19:50:00.406Z,2.33
2018-07-28T19:52:30.607Z,2.00
2018-07-28T19:55:00.903Z,2.27
2018-07-28T19:57:30.506Z,2.27
2018-07-28T20:00:00.298Z,2.20
2018-07-28T20:02:29.933Z,2.13
2018-07-28T20:04:59.505Z,2.10
2018-07-28T20:07:29.074Z,2.13
2018-07-28T20:09:58.670Z,2.20
2018-07-28T20:12:28.373Z,2.10
2018-07-28T20:14:58.017Z,1.93
2018-07-28T20:17:27.845Z,2.10
2018-07-28T20:19:57.652Z,2.30
2018-07-28T20:22:27.927Z,1.93
2018-07-28T20:24:58.139Z,2.20
2018-07-28T20:27:28.202Z,2.10
2018-07-28T20:29:58.659Z,2.27
2018-07-28T20:32:28.693Z,2.00
2018-07-28T20:34:59.074Z,2.00
2018-07-28T20:37:29.424Z,2.13
2018-07-28T20:39:59.799Z,1.97
2018-07-28T20:42:30.137Z,2.20
2018-07-28T20:45:00.462Z,2.00
2018-07-28T20:47:30.817Z,1.97
2018-07-28T20:50:00.953Z,1.93
2018-07-28T20:52:31.053Z,2.23
2018-07-28T20:55:01.558Z,1.90
2018-07-28T20:57:31.818Z,1.77
2018-07-28T21:00:02.213Z,2.20
2018-07-28T21:02:32.315Z,1.90
2018-07-28T21:05:02.584Z,1.77
2018-07-28T21:07:32.223Z,1.83
2018-07-28T21:10:01.993Z,1.90
2018-07-28T21:12:31.477Z,1.90
2018-07-28T21:15:01.305Z,2.17
2018-07-28T21:17:30.926Z,2.10
2018-07-28T21:20:00.659Z,2.00
2018-07-28T21:22:30.396Z,2.20
2018-07-28T21:25:00.159Z,2.20
2018-07-28T21:27:29.962Z,2.23
2018-07-28T21:29:59.633Z,1.93
2018-07-28T21:32:29.359Z,2.23
2018-07-28T21:34:59.066Z,2.10
2018-07-28T21:37:28.642Z,2.27
2018-07-28T21:39:58.226Z,2.20
2018-07-28T21:42:27.892Z,2.20
2018-07-28T21:44:57.520Z,2.00
2018-07-28T21:47:27.234Z,2.50
2018-07-28T21:49:56.862Z,2.30
2018-07-28T21:52:26.402Z,2.27
2018-07-28T21:54:56.592Z,2.30
2018-07-28T21:57:26.696Z,2.47
2018-07-28T21:59:56.665Z,2.50
2018-07-28T22:02:26.722Z,2.40
2018-07-28T22:04:56.664Z,1.90
2018-07-28T22:07:26.701Z,1.80
2018-07-28T22:09:56.667Z,2.00
2018-07-28T22:12:26.664Z,1.90
2018-07-28T22:14:56.686Z,1.93
2018-07-28T22:17:26.754Z,2.07
2018-07-28T22:19:56.620Z,1.90
2018-07-28T22:22:26.504Z,1.90
2018-07-28T22:24:56.713Z,1.83
2018-07-28T22:27:26.569Z,2.40
2018-07-28T22:29:56.506Z,2.20
2018-07-28T22:32:26.124Z,1.90
2018-07-28T22:34:55.752Z,2.10
2018-07-28T22:37:25.382Z,2.30
2018-07-28T22:39:55.234Z,2.10
2018-07-28T22:42:56.193Z,2.30
2018-07-28T22:45:26.223Z,2.30
2018-07-28T22:47:56.255Z,2.40
2018-07-28T22:50:26.349Z,2.60
2018-07-28T22:52:56.129Z,2.20
2018-07-28T22:55:26.087Z,2.13
2018-07-28T22:57:56.050Z,2.37
2018-07-28T23:00:26.039Z,2.10
2018-07-28T23:02:56.063Z,1.80
2018-07-28T23:05:26.021Z,2.00
2018-07-28T23:07:55.959Z,2.03
2018-07-28T23:10:25.755Z,2.30
2018-07-28T23:12:55.811Z,2.13
2018-07-28T23:15:25.816Z,1.90
2018-07-28T23:17:55.903Z,2.23
2018-07-28T23:20:25.893Z,1.83
2018-07-28T23:22:55.831Z,1.90
2018-07-28T23:25:26.139Z,2.50
2018-07-28T23:27:56.184Z,2.37
2018-07-28T23:30:26.271Z,2.40
2018-07-28T23:32:56.437Z,1.77
2018-07-28T23:35:26.816Z,2.07
2018-07-28T23:37:56.449Z,1.90
2018-07-28T23:40:26.288Z,1.93
2018-07-28T23:42:55.942Z,2.10
2018-07-28T23:45:25.606Z,2.20
2018-07-28T23:47:55.458Z,2.50
2018-07-28T23:50:25.218Z,1.90
2018-07-28T23:52:55.022Z,1.97
2018-07-28T23:55:24.650Z,1.90
2018-07-28T23:57:54.378Z,1.80
